createdAt,value
2018-06-28T00:00:05.517Z,1.90
2018-06-28T00:01:10.329Z,1.87
2018-06-28T00:02:13.747Z,2.02
2018-06-28T00:03:17.160Z,1.80
2018-06-28T00:04:20.239Z,1.80
2018-06-28T00:05:24.829Z,1.65
2018-06-28T00:06:29.053Z,1.70
2018-06-28T00:07:32.438Z,1.70
2018-06-28T00:08:35.875Z,1.90
2018-06-28T00:09:39.272Z,1.80
2018-06-28T00:10:43.669Z,1.60
2018-06-28T00:11:47.068Z,1.85
2018-06-28T00:12:50.444Z,1.65
2018-06-28T00:13:53.839Z,1.70
2018-06-28T00:14:57.232Z,1.87
2018-06-28T00:16:02.164Z,1.62
2018-06-28T00:17:05.318Z,1.87
2018-06-28T00:18:08.711Z,2.45
2018-06-28T00:19:12.123Z,1.70
2018-06-28T00:20:16.463Z,2.00
2018-06-28T00:21:21.158Z,1.72
2018-06-28T00:22:24.263Z,1.70
2018-06-28T00:23:27.371Z,1.70
2018-06-28T00:24:30.780Z,1.70
2018-06-28T00:25:35.297Z,1.80
2018-06-28T00:26:38.772Z,1.80
2018-06-28T00:27:42.165Z,1.70
2018-06-28T00:28:45.548Z,2.00
2018-06-28T00:29:48.972Z,2.17
2018-06-28T00:30:53.620Z,1.80
2018-06-28T00:31:57.028Z,1.70
2018-06-28T00:33:00.412Z,1.92
2018-06-28T00:34:03.812Z,1.80
2018-06-28T00:35:08.201Z,1.80
2018-06-28T00:36:12.649Z,1.87
2018-06-28T00:37:16.053Z,1.60
2018-06-28T00:38:19.451Z,1.87
2018-06-28T00:39:22.548Z,1.62
2018-06-28T00:40:27.309Z,1.87
2018-06-28T00:41:30.426Z,1.85
2018-06-28T00:42:33.507Z,1.62
2018-06-28T00:43:36.621Z,1.60
2018-06-28T00:44:40.057Z,1.90
2018-06-28T00:45:44.021Z,1.90
2018-06-28T00:46:47.463Z,1.77
2018-06-28T00:47:50.618Z,2.00
2018-06-28T00:48:54.097Z,2.02
2018-06-28T00:49:57.503Z,1.87
2018-06-28T00:51:02.046Z,1.85
2018-06-28T00:52:05.475Z,1.70
2018-06-28T00:53:08.882Z,1.70
2018-06-28T00:54:12.275Z,1.80
2018-06-28T00:55:16.801Z,1.70
2018-06-28T00:56:21.288Z,1.60
2018-06-28T00:57:24.693Z,1.92
2018-06-28T00:58:28.072Z,2.00
2018-06-28T00:59:31.456Z,1.80
2018-06-28T01:00:36.352Z,2.17
2018-06-28T01:01:39.776Z,1.85
2018-06-28T01:02:42.873Z,1.90
2018-06-28T01:03:45.961Z,1.95
2018-06-28T01:04:49.357Z,1.70
2018-06-28T01:05:53.833Z,1.90
2018-06-28T01:06:57.243Z,1.95
2018-06-28T01:08:00.639Z,1.80
2018-06-28T01:09:06.033Z,1.77
2018-06-28T01:10:10.906Z,1.95
2018-06-28T01:11:15.669Z,1.80
2018-06-28T01:12:19.091Z,1.95
2018-06-28T01:13:22.500Z,1.80
2018-06-28T01:14:25.893Z,1.90
2018-06-28T01:15:30.418Z,1.90
2018-06-28T01:16:33.567Z,1.92
2018-06-28T01:17:36.953Z,2.00
2018-06-28T01:18:40.378Z,2.00
2018-06-28T01:19:43.922Z,1.90
2018-06-28T01:20:48.538Z,1.80
2018-06-28T01:21:51.992Z,1.80
2018-06-28T01:22:55.076Z,1.80
2018-06-28T01:23:58.176Z,1.80
2018-06-28T01:25:01.615Z,1.80
2018-06-28T01:26:06.094Z,1.95
2018-06-28T01:27:09.525Z,1.98
2018-06-28T01:28:12.611Z,2.00
2018-06-28T01:29:16.555Z,1.90
2018-06-28T01:30:21.109Z,1.98
2018-06-28T01:31:26.090Z,1.87
2018-06-28T01:32:29.519Z,1.95
2018-06-28T01:33:32.891Z,2.02
2018-06-28T01:34:36.307Z,2.00
2018-06-28T01:35:41.302Z,2.20
2018-06-28T01:36:44.719Z,1.65
2018-06-28T01:37:47.895Z,1.77
2018-06-28T01:38:51.304Z,1.77
2018-06-28T01:39:54.680Z,1.98
2018-06-28T01:40:58.823Z,1.90
2018-06-28T01:42:13.723Z,1.98
2018-06-28T01:43:37.807Z,1.98
2018-06-28T01:44:40.903Z,2.20
2018-06-28T01:45:46.101Z,2.10
2018-06-28T01:46:49.561Z,2.70
2018-06-28T01:47:52.959Z,1.72
2018-06-28T01:48:56.351Z,2.00
2018-06-28T01:49:59.739Z,2.30
2018-06-28T01:51:04.997Z,2.12
2018-06-28T01:52:08.422Z,2.00
2018-06-28T01:53:11.816Z,1.95
2018-06-28T01:54:15.211Z,2.10
2018-06-28T01:55:19.545Z,2.00
2018-06-28T01:56:23.890Z,2.08
2018-06-28T01:57:27.287Z,2.00
2018-06-28T01:58:30.684Z,2.10
2018-06-28T01:59:34.076Z,2.17
2018-06-28T02:00:38.921Z,2.22
2018-06-28T02:01:42.323Z,2.15
2018-06-28T02:02:45.726Z,2.40
2018-06-28T02:03:49.152Z,1.98
2018-06-28T02:04:52.524Z,2.00
2018-06-28T02:05:58.245Z,2.10
2018-06-28T02:07:01.664Z,2.02
2018-06-28T02:08:05.215Z,2.55
2018-06-28T02:09:09.780Z,2.35
2018-06-28T02:10:14.178Z,2.40
2018-06-28T02:11:18.574Z,2.40
2018-06-28T02:12:21.988Z,2.00
2018-06-28T02:13:25.379Z,2.20
2018-06-28T02:14:28.783Z,2.17
2018-06-28T02:15:34.030Z,2.10
2018-06-28T02:16:37.455Z,2.35
2018-06-28T02:17:40.836Z,1.80
2018-06-28T02:18:44.436Z,1.90
2018-06-28T02:19:47.868Z,2.00
2018-06-28T02:20:52.162Z,2.15
2018-06-28T02:21:55.571Z,2.22
2018-06-28T02:22:58.959Z,2.40
2018-06-28T02:24:02.357Z,2.25
2018-06-28T02:25:06.855Z,2.40
2018-06-28T02:26:11.355Z,2.30
2018-06-28T02:27:14.760Z,2.27
2018-06-28T02:28:18.150Z,2.10
2018-06-28T02:29:22.131Z,2.42
2018-06-28T02:30:26.699Z,1.92
2018-06-28T02:31:30.351Z,2.22
2018-06-28T02:32:33.744Z,2.40
2018-06-28T02:33:37.180Z,2.15
2018-06-28T02:34:40.561Z,2.40
2018-06-28T02:35:45.986Z,2.37
2018-06-28T02:36:49.438Z,2.58
2018-06-28T02:37:52.828Z,2.25
2018-06-28T02:38:56.219Z,2.10
2018-06-28T02:39:59.891Z,2.83
2018-06-28T02:41:05.548Z,2.62
2018-06-28T02:42:09.005Z,2.37
2018-06-28T02:43:12.402Z,2.17
2018-06-28T02:44:15.805Z,2.55
2018-06-28T02:45:20.278Z,2.52
2018-06-28T02:46:24.898Z,2.30
2018-06-28T02:47:28.307Z,2.12
2018-06-28T02:48:31.728Z,2.20
2018-06-28T02:49:35.130Z,2.35
2018-06-28T02:50:39.510Z,2.52
2018-06-28T02:51:42.956Z,2.22
2018-06-28T02:52:46.340Z,2.50
2018-06-28T02:53:49.736Z,2.72
2018-06-28T02:54:53.156Z,2.27
2018-06-28T02:55:57.600Z,2.42
2018-06-28T02:57:01.036Z,2.33
2018-06-28T02:58:04.452Z,2.50
2018-06-28T02:59:07.845Z,2.10
2018-06-28T03:00:12.201Z,2.35
2018-06-28T03:01:17.061Z,2.33
2018-06-28T03:02:20.492Z,2.50
2018-06-28T03:03:23.869Z,2.30
2018-06-28T03:04:27.246Z,2.17
2018-06-28T03:05:32.098Z,2.50
2018-06-28T03:06:35.508Z,2.47
2018-06-28T03:07:38.903Z,2.35
2018-06-28T03:08:42.284Z,2.22
2018-06-28T03:09:45.666Z,2.15
2018-06-28T03:10:50.183Z,2.52
2018-06-28T03:11:53.588Z,2.33
2018-06-28T03:12:56.971Z,2.47
2018-06-28T03:14:00.348Z,2.30
2018-06-28T03:15:04.380Z,2.20
2018-06-28T03:16:08.704Z,2.92
2018-06-28T03:17:12.128Z,2.90
2018-06-28T03:18:15.500Z,3.33
2018-06-28T03:19:18.875Z,4.15
2018-06-28T03:20:23.332Z,5.10
2018-06-28T03:21:27.699Z,5.35
2018-06-28T03:22:31.110Z,5.50
2018-06-28T03:23:34.480Z,5.78
2018-06-28T03:24:37.891Z,5.10
2018-06-28T03:25:42.550Z,5.50
2018-06-28T03:26:45.986Z,5.30
2018-06-28T03:27:49.511Z,4.03
2018-06-28T03:28:52.919Z,3.85
2018-06-28T03:29:56.344Z,3.92
2018-06-28T03:31:00.897Z,3.80
2018-06-28T03:32:04.255Z,3.90
2018-06-28T03:33:07.668Z,4.00
2018-06-28T03:34:11.072Z,3.98
2018-06-28T03:35:15.577Z,3.67
2018-06-28T03:36:19.324Z,4.00
2018-06-28T03:37:22.720Z,3.90
2018-06-28T03:38:26.112Z,3.85
2018-06-28T03:39:29.492Z,3.60
2018-06-28T03:40:33.971Z,3.17
2018-06-28T03:41:37.391Z,3.42
2018-06-28T03:42:40.776Z,3.20
2018-06-28T03:43:44.171Z,2.70
2018-06-28T03:44:47.548Z,3.12
2018-06-28T03:45:52.337Z,2.98
2018-06-28T03:46:55.744Z,2.83
2018-06-28T03:47:59.115Z,3.83
2018-06-28T03:49:02.528Z,3.62
2018-06-28T03:50:06.944Z,3.12
2018-06-28T03:51:11.491Z,3.87
2018-06-28T03:52:14.919Z,2.70
2018-06-28T03:53:18.308Z,3.12
2018-06-28T03:54:21.706Z,2.55
2018-06-28T03:55:27.684Z,2.87
2018-06-28T03:56:31.199Z,3.27
2018-06-28T03:57:34.584Z,3.17
2018-06-28T03:58:37.963Z,4.30
2018-06-28T03:59:41.368Z,3.42
2018-06-28T04:00:45.748Z,3.30
2018-06-28T04:01:49.351Z,3.05
2018-06-28T04:02:52.727Z,3.50
2018-06-28T04:03:56.287Z,3.08
2018-06-28T04:04:59.720Z,3.10
2018-06-28T04:06:04.096Z,3.02
2018-06-28T04:07:07.276Z,3.00
2018-06-28T04:08:10.700Z,3.20
2018-06-28T04:09:14.120Z,3.80
2018-06-28T04:10:18.580Z,3.62
2018-06-28T04:11:23.343Z,3.20
2018-06-28T04:12:26.787Z,2.98
2018-06-28T04:13:30.220Z,3.22
2018-06-28T04:14:33.616Z,2.60
2018-06-28T04:15:38.163Z,2.65
2018-06-28T04:16:41.270Z,2.90
2018-06-28T04:17:44.652Z,2.98
2018-06-28T04:18:48.100Z,2.85
2018-06-28T04:19:51.537Z,2.40
2018-06-28T04:20:55.828Z,3.08
2018-06-28T04:21:59.223Z,2.85
2018-06-28T04:23:02.607Z,2.98
2018-06-28T04:24:05.679Z,3.02
2018-06-28T04:25:09.457Z,2.50
2018-06-28T04:26:13.613Z,2.72
2018-06-28T04:27:17.037Z,3.22
2018-06-28T04:28:20.404Z,2.90
2018-06-28T04:29:24.294Z,3.10
2018-06-28T04:30:28.874Z,2.62
2018-06-28T04:31:32.292Z,2.67
2018-06-28T04:32:35.695Z,2.40
2018-06-28T04:33:39.088Z,2.40
2018-06-28T04:34:42.472Z,2.27
2018-06-28T04:35:47.050Z,2.52
2018-06-28T04:36:50.463Z,3.00
2018-06-28T04:37:53.844Z,2.77
2018-06-28T04:38:57.216Z,2.67
2018-06-28T04:40:00.591Z,2.72
2018-06-28T04:41:05.279Z,2.60
2018-06-28T04:42:08.647Z,2.55
2018-06-28T04:43:12.027Z,2.98
2018-06-28T04:44:15.407Z,2.72
2018-06-28T04:45:19.803Z,2.77
2018-06-28T04:46:24.001Z,3.00
2018-06-28T04:47:27.429Z,2.60
2018-06-28T04:48:30.796Z,3.12
2018-06-28T04:49:34.191Z,2.98
2018-06-28T04:50:38.539Z,2.67
2018-06-28T04:51:41.952Z,2.60
2018-06-28T04:52:45.324Z,2.42
2018-06-28T04:53:48.740Z,2.55
2018-06-28T04:54:52.130Z,3.20
2018-06-28T04:55:56.476Z,2.80
2018-06-28T04:56:59.889Z,2.80
2018-06-28T04:58:03.508Z,2.77
2018-06-28T04:59:06.880Z,2.70
2018-06-28T05:00:11.017Z,2.77
2018-06-28T05:01:15.617Z,2.52
2018-06-28T05:02:18.747Z,2.50
2018-06-28T05:03:22.113Z,2.77
2018-06-28T05:04:25.188Z,3.20
2018-06-28T05:05:29.588Z,2.77
2018-06-28T05:06:32.688Z,2.95
2018-06-28T05:07:35.763Z,2.37
2018-06-28T05:08:38.840Z,2.77
2018-06-28T05:09:42.232Z,2.62
2018-06-28T05:10:45.954Z,2.47
2018-06-28T05:11:49.378Z,2.40
2018-06-28T05:12:52.747Z,2.50
2018-06-28T05:13:56.140Z,2.70
2018-06-28T05:14:59.513Z,2.30
2018-06-28T05:16:03.428Z,2.40
2018-06-28T05:17:06.835Z,2.20
2018-06-28T05:18:10.216Z,2.15
2018-06-28T05:19:13.784Z,2.08
2018-06-28T05:20:19.066Z,2.30
2018-06-28T05:21:23.396Z,2.20
2018-06-28T05:22:26.812Z,2.40
2018-06-28T05:23:30.185Z,2.12
2018-06-28T05:24:33.556Z,1.90
2018-06-28T05:25:38.193Z,2.02
2018-06-28T05:26:41.591Z,2.35
2018-06-28T05:27:44.975Z,1.90
2018-06-28T05:28:48.363Z,1.95
2018-06-28T05:29:51.754Z,2.20
2018-06-28T05:30:56.259Z,2.20
2018-06-28T05:31:59.371Z,2.10
2018-06-28T05:33:02.461Z,2.08
2018-06-28T05:34:05.530Z,2.22
2018-06-28T05:35:09.281Z,1.82
2018-06-28T05:36:13.719Z,1.80
2018-06-28T05:37:17.115Z,1.80
2018-06-28T05:38:20.208Z,2.17
2018-06-28T05:39:23.590Z,1.80
2018-06-28T05:40:28.376Z,2.08
2018-06-28T05:41:31.783Z,1.82
2018-06-28T05:42:35.175Z,1.60
2018-06-28T05:43:38.268Z,1.72
2018-06-28T05:44:41.371Z,2.00
2018-06-28T05:45:45.825Z,1.77
2018-06-28T05:46:49.231Z,1.75
2018-06-28T05:47:52.295Z,2.00
2018-06-28T05:48:55.686Z,1.70
2018-06-28T05:49:59.060Z,2.08
2018-06-28T05:51:03.577Z,2.30
2018-06-28T05:52:06.679Z,2.00
2018-06-28T05:53:09.772Z,1.70
2018-06-28T05:54:13.247Z,1.90
2018-06-28T05:55:17.716Z,1.87
2018-06-28T05:56:22.985Z,1.90
2018-06-28T05:57:26.394Z,1.75
2018-06-28T05:58:29.766Z,2.15
2018-06-28T05:59:32.857Z,1.70
2018-06-28T06:00:37.313Z,2.00
2018-06-28T06:01:40.415Z,1.70
2018-06-28T06:02:43.779Z,1.87
2018-06-28T06:03:47.159Z,1.90
2018-06-28T06:04:50.544Z,2.22
2018-06-28T06:05:55.012Z,1.90
2018-06-28T06:06:58.420Z,2.00
2018-06-28T06:08:01.788Z,1.70
2018-06-28T06:09:07.387Z,1.70
2018-06-28T06:10:11.843Z,1.90
2018-06-28T06:11:16.232Z,1.90
2018-06-28T06:12:19.640Z,1.95
2018-06-28T06:13:23.023Z,1.80
2018-06-28T06:14:26.406Z,2.10
2018-06-28T06:15:30.909Z,2.02
2018-06-28T06:16:34.642Z,1.90
2018-06-28T06:17:38.023Z,2.00
2018-06-28T06:18:41.407Z,1.95
2018-06-28T06:19:44.778Z,1.70
2018-06-28T06:20:49.323Z,2.50
2018-06-28T06:21:52.736Z,2.10
2018-06-28T06:22:55.811Z,2.00
2018-06-28T06:23:59.183Z,1.92
2018-06-28T06:25:02.593Z,2.37
2018-06-28T06:26:06.995Z,1.80
2018-06-28T06:27:10.087Z,1.85
2018-06-28T06:28:13.191Z,2.20
2018-06-28T06:29:16.573Z,1.70
2018-06-28T06:30:21.059Z,2.00
2018-06-28T06:31:25.349Z,2.35
2018-06-28T06:32:28.771Z,2.00
2018-06-28T06:33:32.147Z,2.58
2018-06-28T06:34:35.519Z,2.15
2018-06-28T06:35:40.143Z,1.90
2018-06-28T06:36:43.560Z,2.00
2018-06-28T06:37:46.956Z,2.02
2018-06-28T06:38:50.336Z,1.77
2018-06-28T06:39:53.718Z,2.20
2018-06-28T06:40:58.108Z,2.15
2018-06-28T06:42:01.538Z,2.10
2018-06-28T06:43:05.288Z,1.92
2018-06-28T06:44:08.681Z,2.85
2018-06-28T06:45:13.723Z,2.20
2018-06-28T06:46:18.266Z,1.98
2018-06-28T06:47:21.383Z,2.42
2018-06-28T06:48:24.775Z,2.25
2018-06-28T06:49:28.151Z,2.00
2018-06-28T06:50:32.624Z,1.90
2018-06-28T06:51:36.036Z,2.20
2018-06-28T06:52:39.151Z,2.10
2018-06-28T06:53:42.523Z,1.90
2018-06-28T06:54:45.908Z,1.82
2018-06-28T06:55:50.601Z,2.12
2018-06-28T06:56:53.703Z,2.20
2018-06-28T06:57:57.304Z,2.30
2018-06-28T06:59:00.683Z,2.52
2018-06-28T07:00:05.417Z,2.55
2018-06-28T07:01:09.978Z,2.22
2018-06-28T07:02:13.373Z,2.30
2018-06-28T07:03:16.763Z,2.10
2018-06-28T07:04:20.205Z,2.10
2018-06-28T07:05:25.735Z,2.20
2018-06-28T07:06:29.684Z,2.27
2018-06-28T07:07:33.059Z,1.87
2018-06-28T07:08:36.451Z,2.00
2018-06-28T07:09:39.844Z,2.10
2018-06-28T07:10:44.253Z,2.00
2018-06-28T07:11:47.653Z,2.20
2018-06-28T07:12:50.723Z,2.00
2018-06-28T07:13:54.194Z,2.10
2018-06-28T07:14:57.540Z,1.92
2018-06-28T07:16:02.177Z,2.05
2018-06-28T07:17:05.539Z,2.40
2018-06-28T07:18:08.920Z,1.90
2018-06-28T07:19:12.324Z,2.30
2018-06-28T07:20:16.878Z,2.25
2018-06-28T07:21:21.183Z,2.37
2018-06-28T07:22:24.591Z,2.10
2018-06-28T07:23:27.976Z,2.20
2018-06-28T07:24:31.374Z,1.95
2018-06-28T07:25:35.762Z,2.30
2018-06-28T07:26:39.159Z,2.37
2018-06-28T07:27:42.531Z,2.30
2018-06-28T07:28:45.924Z,3.22
2018-06-28T07:29:49.787Z,2.85
2018-06-28T07:30:54.203Z,2.87
2018-06-28T07:31:57.644Z,2.27
2018-06-28T07:33:01.069Z,2.92
2018-06-28T07:34:04.415Z,2.70
2018-06-28T07:35:08.919Z,2.60
2018-06-28T07:36:13.427Z,2.70
2018-06-28T07:37:16.827Z,2.55
2018-06-28T07:38:20.203Z,2.55
2018-06-28T07:39:24.116Z,3.00
2018-06-28T07:40:28.747Z,2.77
2018-06-28T07:41:31.855Z,2.37
2018-06-28T07:42:35.251Z,2.72
2018-06-28T07:43:38.632Z,2.22
2018-06-28T07:44:41.723Z,3.20
2018-06-28T07:45:46.371Z,2.47
2018-06-28T07:46:49.480Z,2.35
2018-06-28T07:47:52.495Z,2.40
2018-06-28T07:48:55.579Z,2.45
2018-06-28T07:49:58.988Z,2.35
2018-06-28T07:51:03.821Z,2.20
2018-06-28T07:52:07.280Z,2.22
2018-06-28T07:53:10.672Z,2.20
2018-06-28T07:54:14.051Z,2.25
2018-06-28T07:55:18.767Z,3.12
2018-06-28T07:56:23.180Z,2.40
2018-06-28T07:57:26.606Z,2.20
2018-06-28T07:58:29.984Z,2.83
2018-06-28T07:59:33.355Z,2.17
2018-06-28T08:00:37.742Z,2.30
2018-06-28T08:01:41.161Z,1.80
2018-06-28T08:02:44.591Z,2.22
2018-06-28T08:03:48.357Z,2.10
2018-06-28T08:04:51.952Z,2.10
2018-06-28T08:05:57.241Z,2.62
2018-06-28T08:07:00.774Z,2.15
2018-06-28T08:08:04.154Z,2.05
2018-06-28T08:09:08.045Z,1.98
2018-06-28T08:10:12.522Z,2.27
2018-06-28T08:11:17.352Z,1.95
2018-06-28T08:12:20.764Z,2.20
2018-06-28T08:13:24.568Z,2.00
2018-06-28T08:14:27.948Z,2.02
2018-06-28T08:15:32.299Z,1.90
2018-06-28T08:16:35.716Z,2.45
2018-06-28T08:17:39.108Z,2.17
2018-06-28T08:18:42.496Z,2.10
2018-06-28T08:19:45.867Z,2.10
2018-06-28T08:20:50.557Z,2.40
2018-06-28T08:21:53.992Z,2.47
2018-06-28T08:22:57.392Z,2.10
2018-06-28T08:24:00.780Z,2.12
2018-06-28T08:25:05.256Z,1.90
2018-06-28T08:26:09.706Z,2.08
2018-06-28T08:27:13.108Z,2.52
2018-06-28T08:28:16.510Z,2.40
2018-06-28T08:29:26.275Z,4.85
2018-06-28T08:30:30.822Z,3.00
2018-06-28T08:31:34.822Z,2.80
2018-06-28T08:32:38.215Z,2.60
2018-06-28T08:33:41.599Z,2.05
2018-06-28T08:34:45.005Z,3.00
2018-06-28T08:35:50.211Z,1.82
2018-06-28T08:36:53.623Z,1.90
2018-06-28T08:37:56.907Z,2.10
2018-06-28T08:39:00.295Z,2.00
2018-06-28T08:40:04.024Z,4.30
2018-06-28T08:41:08.460Z,2.35
2018-06-28T08:42:11.864Z,1.90
2018-06-28T08:43:15.824Z,1.60
2018-06-28T08:44:19.153Z,2.35
2018-06-28T08:45:23.675Z,1.90
2018-06-28T08:46:27.985Z,1.82
2018-06-28T08:47:31.379Z,2.00
2018-06-28T08:48:34.787Z,2.30
2018-06-28T08:49:38.177Z,1.82
2018-06-28T08:50:42.681Z,2.05
2018-06-28T08:51:46.119Z,1.70
2018-06-28T08:52:49.501Z,1.85
2018-06-28T08:53:52.949Z,1.92
2018-06-28T08:54:56.338Z,2.02
2018-06-28T08:56:01.052Z,3.10
2018-06-28T08:57:04.484Z,3.20
2018-06-28T08:58:07.887Z,2.72
2018-06-28T08:59:11.276Z,2.20
2018-06-28T09:00:16.151Z,2.35
2018-06-28T09:01:20.692Z,1.90
2018-06-28T09:02:24.132Z,2.20
2018-06-28T09:03:27.859Z,4.00
2018-06-28T09:04:31.464Z,2.10
2018-06-28T09:05:37.554Z,2.87
2018-06-28T09:06:40.959Z,2.70
2018-06-28T09:07:44.341Z,2.98
2018-06-28T09:08:47.751Z,2.85
2018-06-28T09:09:51.361Z,1.60
2018-06-28T09:10:58.541Z,2.25
2018-06-28T09:12:01.647Z,2.85
2018-06-28T09:13:04.939Z,2.10
2018-06-28T09:14:08.576Z,3.25
2018-06-28T09:15:13.063Z,2.95
2018-06-28T09:16:17.458Z,2.45
2018-06-28T09:17:20.872Z,3.75
2018-06-28T09:18:24.243Z,2.92
2018-06-28T09:19:27.627Z,3.92
2018-06-28T09:20:32.038Z,16.65
2018-06-28T09:21:35.468Z,13.22
2018-06-28T09:22:38.925Z,8.48
2018-06-28T09:23:42.232Z,7.33
2018-06-28T09:24:45.615Z,2.98
2018-06-28T09:25:50.029Z,3.30
2018-06-28T09:26:53.441Z,2.87
2018-06-28T09:27:56.811Z,2.20
2018-06-28T09:29:00.191Z,3.05
2018-06-28T09:30:04.077Z,4.22
2018-06-28T09:31:08.568Z,2.90
2018-06-28T09:32:11.995Z,2.10
2018-06-28T09:33:15.407Z,2.92
2018-06-28T09:34:18.508Z,2.10
2018-06-28T09:35:22.871Z,2.42
2018-06-28T09:36:27.817Z,2.60
2018-06-28T09:37:31.235Z,2.10
2018-06-28T09:38:34.613Z,2.02
2018-06-28T09:39:37.992Z,2.10
2018-06-28T09:40:42.753Z,1.90
2018-06-28T09:41:46.195Z,2.10
2018-06-28T09:42:49.815Z,2.30
2018-06-28T09:43:53.200Z,1.80
2018-06-28T09:44:56.575Z,2.10
2018-06-28T09:46:01.950Z,1.80
2018-06-28T09:47:05.381Z,3.42
2018-06-28T09:48:08.870Z,2.75
2018-06-28T09:49:12.244Z,2.00
2018-06-28T09:50:16.721Z,1.98
2018-06-28T09:51:21.331Z,1.50
2018-06-28T09:52:24.808Z,1.80
2018-06-28T09:53:28.183Z,1.98
2018-06-28T09:54:31.567Z,1.77
2018-06-28T09:55:35.989Z,1.80
2018-06-28T09:56:39.085Z,1.82
2018-06-28T09:57:44.503Z,2.17
2018-06-28T09:58:47.883Z,1.67
2018-06-28T09:59:51.259Z,1.60
2018-06-28T10:00:55.583Z,1.55
2018-06-28T10:01:58.790Z,1.50
2018-06-28T10:03:02.182Z,1.87
2018-06-28T10:04:05.258Z,2.00
2018-06-28T10:05:09.090Z,1.72
2018-06-28T10:06:13.570Z,1.92
2018-06-28T10:07:16.985Z,1.92
2018-06-28T10:08:20.373Z,1.90
2018-06-28T10:09:23.763Z,1.70
2018-06-28T10:10:28.310Z,1.77
2018-06-28T10:11:32.048Z,1.85
2018-06-28T10:12:35.789Z,2.00
2018-06-28T10:13:39.179Z,1.90
2018-06-28T10:14:42.790Z,1.82
2018-06-28T10:15:47.248Z,1.90
2018-06-28T10:16:50.702Z,1.70
2018-06-28T10:17:54.390Z,1.60
2018-06-28T10:18:57.458Z,2.08
2018-06-28T10:20:00.843Z,1.90
2018-06-28T10:21:06.250Z,1.98
2018-06-28T10:22:09.647Z,2.20
2018-06-28T10:23:13.061Z,1.80
2018-06-28T10:24:16.452Z,1.75
2018-06-28T10:25:20.384Z,1.95
2018-06-28T10:26:25.154Z,1.87
2018-06-28T10:27:28.563Z,1.70
2018-06-28T10:28:31.658Z,1.95
2018-06-28T10:29:35.035Z,2.00
2018-06-28T10:30:39.595Z,2.02
2018-06-28T10:31:43.019Z,1.57
2018-06-28T10:32:46.475Z,1.60
2018-06-28T10:33:49.507Z,2.25
2018-06-28T10:34:52.883Z,1.72
2018-06-28T10:35:57.254Z,1.90
2018-06-28T10:37:00.828Z,1.77
2018-06-28T10:38:04.211Z,1.82
2018-06-28T10:39:08.934Z,1.70
2018-06-28T10:40:13.753Z,1.60
2018-06-28T10:41:19.551Z,2.02
2018-06-28T10:42:22.960Z,1.90
2018-06-28T10:43:26.371Z,2.30
2018-06-28T10:44:29.776Z,2.10
2018-06-28T10:45:34.185Z,3.60
2018-06-28T10:46:37.275Z,2.40
2018-06-28T10:47:40.656Z,2.00
2018-06-28T10:48:44.188Z,2.20
2018-06-28T10:49:47.624Z,2.85
2018-06-28T10:50:52.054Z,2.40
2018-06-28T10:51:55.476Z,2.60
2018-06-28T10:52:58.859Z,2.30
2018-06-28T10:54:02.301Z,2.50
2018-06-28T10:55:06.835Z,2.10
2018-06-28T10:56:11.318Z,1.98
2018-06-28T10:57:14.699Z,2.30
2018-06-28T10:58:18.091Z,2.12
2018-06-28T10:59:21.484Z,2.95
2018-06-28T11:00:25.796Z,2.60
2018-06-28T11:01:29.767Z,2.30
2018-06-28T11:02:33.171Z,2.30
2018-06-28T11:03:36.551Z,4.33
2018-06-28T11:04:39.931Z,5.95
2018-06-28T11:05:44.342Z,2.98
2018-06-28T11:06:47.776Z,2.33
2018-06-28T11:07:51.187Z,1.90
2018-06-28T11:08:54.561Z,2.42
2018-06-28T11:09:57.941Z,2.27
2018-06-28T11:11:02.941Z,1.77
2018-06-28T11:12:06.604Z,1.92
2018-06-28T11:13:09.983Z,1.70
2018-06-28T11:14:13.387Z,3.72
2018-06-28T11:15:17.746Z,2.02
2018-06-28T11:16:23.029Z,1.75
2018-06-28T11:17:26.420Z,1.72
2018-06-28T11:18:29.811Z,2.30
2018-06-28T11:19:33.187Z,2.08
2018-06-28T11:20:37.526Z,2.10
2018-06-28T11:21:40.943Z,1.75
2018-06-28T11:22:44.335Z,2.22
2018-06-28T11:23:47.731Z,1.92
2018-06-28T11:24:51.116Z,2.75
2018-06-28T11:26:01.680Z,2.00
2018-06-28T11:27:05.139Z,1.72
2018-06-28T11:28:08.524Z,1.85
2018-06-28T11:29:12.024Z,1.95
2018-06-28T11:30:16.536Z,5.92
2018-06-28T11:31:21.007Z,3.45
2018-06-28T11:32:24.467Z,2.05
2018-06-28T11:33:27.546Z,2.20
2018-06-28T11:34:30.935Z,2.15
2018-06-28T11:35:35.697Z,3.47
2018-06-28T11:36:39.119Z,2.12
2018-06-28T11:37:42.539Z,2.05
2018-06-28T11:38:45.973Z,2.10
2018-06-28T11:39:49.359Z,2.17
2018-06-28T11:40:54.379Z,2.35
2018-06-28T11:41:57.810Z,2.00
2018-06-28T11:43:01.203Z,2.00
2018-06-28T11:44:04.814Z,2.20
2018-06-28T11:45:09.260Z,2.02
2018-06-28T11:46:13.750Z,2.12
2018-06-28T11:47:17.167Z,2.30
2018-06-28T11:48:20.563Z,2.10
2018-06-28T11:49:23.975Z,1.75
2018-06-28T11:50:28.525Z,1.80
2018-06-28T11:51:31.943Z,1.67
2018-06-28T11:52:35.325Z,2.10
2018-06-28T11:53:38.722Z,2.00
2018-06-28T11:54:42.111Z,1.67
2018-06-28T11:55:46.600Z,1.98
2018-06-28T11:56:50.012Z,1.82
2018-06-28T11:57:53.395Z,1.87
2018-06-28T11:58:56.803Z,1.80
2018-06-28T11:59:59.875Z,2.00
2018-06-28T12:01:04.513Z,1.67
2018-06-28T12:02:07.934Z,1.40
2018-06-28T12:03:11.323Z,1.95
2018-06-28T12:04:21.459Z,2.25
2018-06-28T12:05:26.011Z,2.02
2018-06-28T12:06:30.076Z,2.15
2018-06-28T12:07:33.467Z,1.60
2018-06-28T12:08:36.847Z,2.00
2018-06-28T12:09:40.239Z,1.98
2018-06-28T12:10:44.749Z,2.00
2018-06-28T12:11:48.159Z,1.82
2018-06-28T12:12:51.543Z,2.00
2018-06-28T12:13:54.948Z,1.85
2018-06-28T12:14:58.031Z,1.70
2018-06-28T12:16:02.617Z,1.60
2018-06-28T12:17:05.911Z,1.80
2018-06-28T12:18:09.291Z,1.95
2018-06-28T12:19:12.681Z,1.92
2018-06-28T12:20:17.128Z,1.70
2018-06-28T12:21:21.675Z,1.70
2018-06-28T12:22:25.133Z,2.37
2018-06-28T12:23:28.476Z,2.00
2018-06-28T12:24:31.860Z,2.10
2018-06-28T12:25:36.309Z,1.90
2018-06-28T12:26:39.714Z,2.30
2018-06-28T12:27:43.092Z,1.60
2018-06-28T12:28:46.467Z,2.30
2018-06-28T12:29:49.843Z,2.75
2018-06-28T12:30:53.892Z,2.10
2018-06-28T12:31:57.303Z,2.08
2018-06-28T12:33:00.699Z,1.60
2018-06-28T12:34:04.072Z,1.90
2018-06-28T12:35:08.467Z,2.60
2018-06-28T12:36:12.993Z,1.67
2018-06-28T12:37:16.403Z,2.20
2018-06-28T12:38:19.788Z,2.70
2018-06-28T12:39:23.164Z,1.80
2018-06-28T12:40:28.438Z,1.67
2018-06-28T12:41:31.859Z,2.20
2018-06-28T12:42:35.765Z,1.67
2018-06-28T12:43:39.151Z,3.22
2018-06-28T12:44:42.547Z,2.62
2018-06-28T12:45:47.139Z,3.42
2018-06-28T12:48:59.344Z,3.90
2018-06-28T12:50:02.818Z,1.70
2018-06-28T12:51:07.396Z,1.65
2018-06-28T12:52:22.112Z,1.60
2018-06-28T12:53:25.500Z,1.90
2018-06-28T12:54:31.903Z,2.05
2018-06-28T12:56:51.413Z,2.00
2018-06-28T12:57:56.067Z,2.00
2018-06-28T12:59:02.402Z,1.87
2018-06-28T13:00:07.274Z,1.82
2018-06-28T13:01:11.777Z,1.70
2018-06-28T13:02:15.176Z,1.77
2018-06-28T13:03:18.588Z,1.67
2018-06-28T13:04:21.968Z,2.10
2018-06-28T13:05:26.322Z,1.92
2018-06-28T13:06:30.235Z,1.57
2018-06-28T13:07:33.615Z,1.62
2018-06-28T13:08:37.018Z,1.80
2018-06-28T13:09:40.399Z,1.80
2018-06-28T13:10:44.898Z,2.05
2018-06-28T13:11:48.320Z,1.72
2018-06-28T13:12:51.710Z,2.10
2018-06-28T13:13:55.223Z,2.52
2018-06-28T13:14:58.633Z,2.80
2018-06-28T13:16:03.903Z,2.87
2018-06-28T13:17:07.316Z,1.50
2018-06-28T13:18:10.719Z,2.02
2018-06-28T13:19:14.111Z,2.00
2018-06-28T13:20:18.436Z,2.03
2018-06-28T13:21:22.712Z,2.40
2018-06-28T13:22:26.101Z,1.92
2018-06-28T13:23:29.495Z,1.90
2018-06-28T13:24:32.887Z,2.08
2018-06-28T13:25:36.773Z,1.83
2018-06-28T13:26:40.166Z,2.02
2018-06-28T13:27:43.535Z,2.02
2018-06-28T13:28:47.112Z,2.00
2018-06-28T13:29:50.531Z,2.00
2018-06-28T13:30:55.113Z,1.75
2018-06-28T13:31:58.227Z,2.47
2018-06-28T13:33:01.311Z,2.00
2018-06-28T13:34:04.815Z,1.90
2018-06-28T13:35:09.259Z,1.65
2018-06-28T13:36:13.727Z,2.70
2018-06-28T13:37:17.135Z,2.30
2018-06-28T13:38:20.524Z,2.17
2018-06-28T13:39:23.973Z,2.07
2018-06-28T13:40:28.483Z,2.40
2018-06-28T13:41:32.143Z,2.98
2018-06-28T13:42:35.303Z,2.08
2018-06-28T13:43:38.693Z,2.12
2018-06-28T13:44:42.063Z,2.00
2018-06-28T13:45:46.600Z,2.10
2018-06-28T13:46:50.020Z,2.17
2018-06-28T13:47:53.419Z,2.05
2018-06-28T13:48:56.807Z,1.90
2018-06-28T13:50:00.159Z,1.92
2018-06-28T13:51:05.447Z,1.95
2018-06-28T13:52:08.859Z,2.60
2018-06-28T13:53:12.239Z,2.63
2018-06-28T13:54:15.739Z,1.87
2018-06-28T13:55:20.216Z,2.27
2018-06-28T13:56:24.692Z,2.12
2018-06-28T13:57:28.115Z,2.12
2018-06-28T13:58:31.562Z,1.90
2018-06-28T13:59:34.939Z,2.12
2018-06-28T14:00:39.312Z,2.40
2018-06-28T14:01:42.739Z,2.15
2018-06-28T14:02:46.128Z,2.30
2018-06-28T14:03:49.507Z,2.33
2018-06-28T14:04:52.903Z,1.92
2018-06-28T14:05:57.388Z,2.17
2018-06-28T14:07:00.844Z,1.87
2018-06-28T14:08:04.250Z,2.10
2018-06-28T14:09:10.576Z,2.42
2018-06-28T14:10:15.654Z,2.60
2018-06-28T14:11:19.970Z,2.10
2018-06-28T14:12:23.079Z,2.37